Time;durP1;ratioP1;P1;durP2;ratioP2;P2;SDS_P1;SDS_P2;PMS_P1;PMS_P2;Temp;Humidity;BMP_temperature;BMP_pressure;BME280_temperature;BME280_humidity;BME280_pressure;Samples;Min_cycle;Max_cycle;Signal;HPM_P1;HPM_P2
2021/07/18 00:00:07;;;;;;;4.47;4.05;;;;;;;;;;5026854;28;20813;-63
2021/07/18 00:02:33;;;;;;;6.07;4.40;;;;;;;;;;5027182;28;20034;-63
2021/07/18 00:04:59;;;;;;;5.57;4.63;;;;;;;;;;5033692;28;20029;-63
2021/07/18 00:07:25;;;;;;;5.32;4.50;;;;;;;;;;5026813;28;20017;-63
2021/07/18 00:09:51;;;;;;;5.90;4.30;;;;;;;;;;5026792;28;20033;-61
2021/07/18 00:12:17;;;;;;;5.93;5.22;;;;;;;;;;5027134;28;20018;-63
2021/07/18 00:14:44;;;;;;;5.47;4.97;;;;;;;;;;5027253;28;20121;-62
2021/07/18 00:17:11;;;;;;;6.38;5.47;;;;;;;;;;5026713;28;20104;-62
2021/07/18 00:19:37;;;;;;;5.78;5.03;;;;;;;;;;5026205;28;20029;-63
2021/07/18 00:22:03;;;;;;;6.10;4.75;;;;;;;;;;5029430;28;20120;-63
2021/07/18 00:24:30;;;;;;;4.95;4.45;;;;;;;;;;5026423;28;20101;-63
2021/07/18 00:26:56;;;;;;;4.30;3.90;;;;;;;;;;5026270;28;20101;-63
2021/07/18 00:29:22;;;;;;;5.75;4.80;;;;;;;;;;5026962;28;20124;-62
2021/07/18 00:31:48;;;;;;;5.40;4.75;;;;;;;;;;5031418;28;20040;-63
2021/07/18 00:34:14;;;;;;;4.97;4.00;;;;;;;;;;5027008;28;20034;-63
2021/07/18 00:36:41;;;;;;;5.13;4.53;;;;;;;;;;5026395;28;20033;-63
2021/07/18 00:39:07;;;;;;;5.38;4.88;;;;;;;;;;5032789;28;20039;-62
2021/07/18 00:41:34;;;;;;;5.82;4.82;;;;;;;;;;5025801;28;20025;-63
2021/07/18 00:44:00;;;;;;;5.53;4.80;;;;;;;;;;5025842;28;20034;-63
2021/07/18 00:46:26;;;;;;;6.05;5.45;;;;;;;;;;5026462;28;20445;-62
2021/07/18 00:48:52;;;;;;;5.32;4.68;;;;;;;;;;5026093;28;20104;-63
2021/07/18 00:51:18;;;;;;;5.15;4.65;;;;;;;;;;5025280;28;20112;-63
2021/07/18 00:53:44;;;;;;;5.13;4.55;;;;;;;;;;5024133;28;20124;-63
2021/07/18 00:56:11;;;;;;;5.22;4.72;;;;;;;;;;5026261;28;20037;-63
2021/07/18 00:58:37;;;;;;;6.05;5.30;;;;;;;;;;5027537;28;20041;-63
2021/07/18 01:01:03;;;;;;;5.28;4.20;;;;;;;;;;5030748;28;20026;-63
2021/07/18 01:03:30;;;;;;;4.93;4.38;;;;;;;;;;5026095;28;20105;-63
2021/07/18 01:05:56;;;;;;;5.43;4.55;;;;;;;;;;5025720;28;20033;-63
2021/07/18 01:08:22;;;;;;;5.05;4.30;;;;;;;;;;5025894;28;20492;-63
2021/07/18 01:10:48;;;;;;;5.40;4.65;;;;;;;;;;5025306;28;20029;-63
2021/07/18 01:13:14;;;;;;;5.05;4.30;;;;;;;;;;5026583;28;20025;-63
2021/07/18 01:15:41;;;;;;;4.97;4.47;;;;;;;;;;5025770;28;20507;-63
2021/07/18 01:18:07;;;;;;;6.53;4.55;;;;;;;;;;5025721;28;20492;-63
2021/07/18 01:20:33;;;;;;;4.95;4.20;;;;;;;;;;5033440;28;20025;-63
2021/07/18 01:22:59;;;;;;;6.38;4.70;;;;;;;;;;5025343;28;20029;-63
2021/07/18 01:25:26;;;;;;;5.65;4.65;;;;;;;;;;5040645;28;20373;-63
2021/07/18 01:27:53;;;;;;;4.45;3.80;;;;;;;;;;5045531;28;20083;-63
2021/07/18 01:30:20;;;;;;;4.88;4.38;;;;;;;;;;5036638;28;20403;-63
2021/07/18 01:32:47;;;;;;;4.55;4.10;;;;;;;;;;5026203;28;20029;-63
2021/07/18 01:35:13;;;;;;;4.65;4.05;;;;;;;;;;5026324;28;20056;-63
2021/07/18 01:37:39;;;;;;;4.53;3.92;;;;;;;;;;5026352;28;20025;-63
2021/07/18 01:40:07;;;;;;;4.82;3.92;;;;;;;;;;5041430;28;20107;-63
2021/07/18 01:42:33;;;;;;;4.60;3.78;;;;;;;;;;5043243;28;20071;-63
2021/07/18 01:44:59;;;;;;;3.97;3.58;;;;;;;;;;5045727;28;20570;-63
2021/07/18 01:47:25;;;;;;;4.20;3.80;;;;;;;;;;5044173;28;20025;-63
2021/07/18 01:49:51;;;;;;;4.03;3.67;;;;;;;;;;5045579;28;20033;-63
2021/07/18 01:52:18;;;;;;;4.40;3.83;;;;;;;;;;5041297;28;20840;-63
2021/07/18 01:54:44;;;;;;;4.90;4.25;;;;;;;;;;5024225;28;20026;-63
2021/07/18 01:57:10;;;;;;;5.40;4.50;;;;;;;;;;5025855;28;20029;-63
2021/07/18 01:59:36;;;;;;;5.30;4.47;;;;;;;;;;5028723;28;20392;-63
2021/07/18 02:02:03;;;;;;;5.28;4.60;;;;;;;;;;5023510;28;20040;-63
2021/07/18 02:04:29;;;;;;;4.00;3.60;;;;;;;;;;5027535;28;20152;-63
2021/07/18 02:06:55;;;;;;;3.90;3.50;;;;;;;;;;5029016;28;20053;-63
2021/07/18 02:09:21;;;;;;;5.10;4.28;;;;;;;;;;5028976;28;20060;-63
2021/07/18 02:11:47;;;;;;;4.55;3.97;;;;;;;;;;5029478;28;20400;-63
2021/07/18 02:14:14;;;;;;;5.70;4.50;;;;;;;;;;5027926;28;20034;-62
2021/07/18 02:16:40;;;;;;;6.10;4.90;;;;;;;;;;5029095;28;20515;-63
2021/07/18 02:19:09;;;;;;;5.18;4.68;;;;;;;;;;5028512;28;20111;-63
2021/07/18 02:21:36;;;;;;;5.18;4.40;;;;;;;;;;5031927;28;20041;-63
2021/07/18 02:24:03;;;;;;;4.55;4.07;;;;;;;;;;5028942;28;20104;-63
2021/07/18 02:26:30;;;;;;;5.20;4.15;;;;;;;;;;5029385;28;20028;-63
2021/07/18 02:28:58;;;;;;;4.28;3.88;;;;;;;;;;5028853;28;20029;-63
2021/07/18 02:31:25;;;;;;;4.80;3.92;;;;;;;;;;5032180;28;20038;-63
2021/07/18 02:33:51;;;;;;;4.18;3.75;;;;;;;;;;5028541;28;20022;-64
2021/07/18 02:36:17;;;;;;;4.32;3.92;;;;;;;;;;5029517;28;20506;-63
2021/07/18 02:38:43;;;;;;;4.30;3.85;;;;;;;;;;5028906;28;20454;-63
2021/07/18 02:41:09;;;;;;;4.78;3.97;;;;;;;;;;5028495;28;20888;-63
2021/07/18 02:43:35;;;;;;;4.15;3.58;;;;;;;;;;5028962;28;20025;-63
2021/07/18 02:46:01;;;;;;;3.60;3.30;;;;;;;;;;5028807;28;20021;-63
2021/07/18 02:48:27;;;;;;;4.32;3.92;;;;;;;;;;5028950;28;20067;-63
2021/07/18 02:50:53;;;;;;;4.60;3.90;;;;;;;;;;5031737;28;20445;-63
2021/07/18 02:53:19;;;;;;;4.50;4.00;;;;;;;;;;5028644;28;20032;-63
2021/07/18 02:55:45;;;;;;;3.72;3.35;;;;;;;;;;5027299;28;20045;-63
2021/07/18 02:58:11;;;;;;;4.00;3.38;;;;;;;;;;5028664;28;20029;-63
2021/07/18 03:00:37;;;;;;;3.13;2.83;;;;;;;;;;5028033;28;20033;-63
2021/07/18 03:03:05;;;;;;;3.53;3.20;;;;;;;;;;5028137;28;20103;-63
2021/07/18 03:05:31;;;;;;;3.95;3.55;;;;;;;;;;5028124;28;20025;-63
2021/07/18 03:07:57;;;;;;;4.05;3.38;;;;;;;;;;5028259;28;20109;-63
2021/07/18 03:10:23;;;;;;;3.75;3.38;;;;;;;;;;5027830;28;20037;-62
2021/07/18 03:12:49;;;;;;;3.58;3.28;;;;;;;;;;5029917;28;20507;-63
2021/07/18 03:15:16;;;;;;;4.03;3.63;;;;;;;;;;5029063;28;20507;-63
2021/07/18 03:17:43;;;;;;;4.07;3.67;;;;;;;;;;5028055;28;20021;-63
2021/07/18 03:20:11;;;;;;;5.22;3.97;;;;;;;;;;5027512;28;20725;-63
2021/07/18 03:22:37;;;;;;;4.05;3.60;;;;;;;;;;5027364;28;20090;-63
2021/07/18 03:25:04;;;;;;;3.53;3.13;;;;;;;;;;5032128;28;20021;-63
2021/07/18 03:27:30;;;;;;;3.45;3.15;;;;;;;;;;5048024;28;20512;-63
2021/07/18 03:29:56;;;;;;;4.05;3.65;;;;;;;;;;5047579;28;20107;-63
2021/07/18 03:32:22;;;;;;;4.50;3.83;;;;;;;;;;5047475;28;20146;-63
2021/07/18 03:34:48;;;;;;;3.65;3.28;;;;;;;;;;5047863;28;20102;-63
2021/07/18 03:37:15;;;;;;;3.65;3.15;;;;;;;;;;5045942;28;20542;-63
2021/07/18 03:39:41;;;;;;;3.72;3.35;;;;;;;;;;5027653;28;20112;-63
2021/07/18 03:42:07;;;;;;;3.85;3.45;;;;;;;;;;5027400;28;20108;-63
2021/07/18 03:44:33;;;;;;;4.10;3.70;;;;;;;;;;5046159;28;20508;-63
2021/07/18 03:47:00;;;;;;;4.15;3.75;;;;;;;;;;5046158;28;20155;-63
2021/07/18 03:49:26;;;;;;;3.95;3.55;;;;;;;;;;5046813;28;20025;-63
2021/07/18 03:51:53;;;;;;;3.72;3.30;;;;;;;;;;5044797;28;20048;-63
2021/07/18 03:54:20;;;;;;;3.63;3.30;;;;;;;;;;5026680;28;20021;-63
2021/07/18 03:56:47;;;;;;;4.40;3.90;;;;;;;;;;5038133;28;20040;-63
2021/07/18 03:59:14;;;;;;;4.10;3.70;;;;;;;;;;5047408;28;20522;-64
2021/07/18 04:01:41;;;;;;;4.30;3.88;;;;;;;;;;5047483;28;20116;-63
2021/07/18 04:04:07;;;;;;;3.50;3.20;;;;;;;;;;5040984;28;20083;-63
2021/07/18 04:06:33;;;;;;;4.03;3.63;;;;;;;;;;5027232;28;20026;-63
2021/07/18 04:08:59;;;;;;;3.70;3.30;;;;;;;;;;5026594;28;20034;-63
2021/07/18 04:11:25;;;;;;;4.00;3.60;;;;;;;;;;5026850;28;20021;-63
2021/07/18 04:13:51;;;;;;;3.67;3.35;;;;;;;;;;5026783;28;20052;-63
2021/07/18 04:16:17;;;;;;;4.18;3.60;;;;;;;;;;5027159;28;20037;-63
2021/07/18 04:18:43;;;;;;;3.60;3.30;;;;;;;;;;5026860;28;20546;-63
2021/07/18 04:21:09;;;;;;;3.45;3.13;;;;;;;;;;5026762;28;20037;-63
2021/07/18 04:23:35;;;;;;;3.85;3.45;;;;;;;;;;5026412;28;20033;-63
2021/07/18 04:26:01;;;;;;;4.00;3.60;;;;;;;;;;5038568;28;20106;-63
2021/07/18 04:28:27;;;;;;;3.53;3.22;;;;;;;;;;5046522;28;20025;-63
2021/07/18 04:30:53;;;;;;;4.75;3.65;;;;;;;;;;5044711;28;20063;-63
2021/07/18 04:33:20;;;;;;;3.65;3.35;;;;;;;;;;5030190;28;20034;-63
2021/07/18 04:35:46;;;;;;;3.97;3.58;;;;;;;;;;5026561;28;20032;-63
2021/07/18 04:38:12;;;;;;;4.15;3.40;;;;;;;;;;5027082;28;20040;-63
2021/07/18 04:40:39;;;;;;;3.42;3.13;;;;;;;;;;5027229;28;20033;-63
2021/07/18 04:43:05;;;;;;;3.80;3.40;;;;;;;;;;5026157;28;20040;-63
2021/07/18 04:45:31;;;;;;;4.20;3.67;;;;;;;;;;5025005;28;20025;-63
2021/07/18 04:47:58;;;;;;;4.13;3.72;;;;;;;;;;5026299;28;20411;-63
2021/07/18 04:50:25;;;;;;;3.85;3.33;;;;;;;;;;5026452;28;20032;-63
2021/07/18 04:52:51;;;;;;;4.75;3.92;;;;;;;;;;5025939;28;20498;-63
2021/07/18 04:55:18;;;;;;;3.75;3.42;;;;;;;;;;5025839;28;20072;-63
2021/07/18 04:57:44;;;;;;;3.42;3.13;;;;;;;;;;5026928;28;20025;-63
2021/07/18 05:00:14;;;;;;;3.67;3.38;;;;;;;;;;5027864;28;20059;-63
2021/07/18 05:02:40;;;;;;;3.88;3.45;;;;;;;;;;5026423;28;20029;-63
2021/07/18 05:05:13;;;;;;;4.07;3.58;;;;;;;;;;5025950;28;20021;-63
2021/07/18 05:07:45;;;;;;;3.73;3.30;;;;;;;;;;5026492;28;20491;-63
2021/07/18 05:10:12;;;;;;;3.58;3.22;;;;;;;;;;5026923;28;20033;-63
2021/07/18 05:12:38;;;;;;;4.05;3.65;;;;;;;;;;5026481;28;20462;-63
2021/07/18 05:15:05;;;;;;;4.40;3.40;;;;;;;;;;5025605;28;20030;-63
2021/07/18 05:17:31;;;;;;;4.60;3.45;;;;;;;;;;5026196;28;20411;-63
2021/07/18 05:19:58;;;;;;;4.15;3.10;;;;;;;;;;5025712;28;20037;-63
2021/07/18 05:22:25;;;;;;;4.22;3.83;;;;;;;;;;5025364;28;20026;-63
2021/07/18 05:24:52;;;;;;;4.05;3.30;;;;;;;;;;5028347;28;20025;-63
2021/07/18 05:27:19;;;;;;;3.55;3.20;;;;;;;;;;5033787;28;20029;-63
2021/07/18 05:29:45;;;;;;;3.65;3.08;;;;;;;;;;5025827;28;20026;-63
2021/07/18 05:32:11;;;;;;;4.32;3.90;;;;;;;;;;5027302;28;20558;-63
2021/07/18 05:34:38;;;;;;;3.78;3.30;;;;;;;;;;5026846;28;20446;-63
2021/07/18 05:37:05;;;;;;;4.60;3.60;;;;;;;;;;5026754;28;20056;-63
2021/07/18 05:39:31;;;;;;;3.83;3.47;;;;;;;;;;5033876;28;20033;-63
2021/07/18 05:41:59;;;;;;;5.05;3.95;;;;;;;;;;5046024;28;20025;-63
2021/07/18 05:44:25;;;;;;;3.70;3.40;;;;;;;;;;5031596;28;20079;-63
2021/07/18 05:46:51;;;;;;;4.03;3.60;;;;;;;;;;5035213;28;20021;-63
2021/07/18 05:49:17;;;;;;;4.45;4.00;;;;;;;;;;5038014;28;20468;-63
2021/07/18 05:51:44;;;;;;;5.13;3.83;;;;;;;;;;5030167;28;20025;-63
2021/07/18 05:54:10;;;;;;;4.15;3.40;;;;;;;;;;5046723;28;20041;-63
2021/07/18 05:56:36;;;;;;;3.75;3.45;;;;;;;;;;5046226;28;20044;-63
2021/07/18 05:59:02;;;;;;;4.35;3.55;;;;;;;;;;5029755;28;20415;-63
2021/07/18 06:01:28;;;;;;;4.05;3.67;;;;;;;;;;5030675;28;20404;-63
2021/07/18 06:03:54;;;;;;;3.78;3.47;;;;;;;;;;5029222;28;20025;-63
2021/07/18 06:06:21;;;;;;;3.85;3.35;;;;;;;;;;5030857;28;20514;-63
2021/07/18 06:08:47;;;;;;;4.15;3.70;;;;;;;;;;5033500;28;20030;-63
2021/07/18 06:11:13;;;;;;;3.95;3.63;;;;;;;;;;5030648;28;20032;-63
2021/07/18 06:13:39;;;;;;;4.57;3.70;;;;;;;;;;5031553;28;20455;-63
2021/07/18 06:16:05;;;;;;;3.35;3.05;;;;;;;;;;5030195;28;20084;-63
2021/07/18 06:18:31;;;;;;;3.75;3.20;;;;;;;;;;5030637;28;20049;-63
2021/07/18 06:20:58;;;;;;;3.78;3.38;;;;;;;;;;5029964;28;20125;-63
2021/07/18 06:23:24;;;;;;;4.00;3.60;;;;;;;;;;5030019;28;20108;-62
2021/07/18 06:25:50;;;;;;;3.88;3.40;;;;;;;;;;5041196;28;20482;-63
2021/07/18 06:28:16;;;;;;;3.90;3.50;;;;;;;;;;5048659;28;20028;-63
2021/07/18 06:30:42;;;;;;;3.90;3.50;;;;;;;;;;5050700;28;20479;-63
2021/07/18 06:33:08;;;;;;;3.45;3.15;;;;;;;;;;5045489;28;20028;-63
2021/07/18 06:35:34;;;;;;;3.90;3.50;;;;;;;;;;5030142;28;20026;-63
2021/07/18 06:38:01;;;;;;;3.97;3.55;;;;;;;;;;5033358;28;20025;-63
2021/07/18 06:40:27;;;;;;;3.45;3.05;;;;;;;;;;5041069;28;20025;-63
2021/07/18 06:42:53;;;;;;;3.47;3.17;;;;;;;;;;5040984;28;20040;-63
2021/07/18 06:45:19;;;;;;;4.35;3.67;;;;;;;;;;5049786;28;20167;-63
2021/07/18 06:47:45;;;;;;;4.10;3.70;;;;;;;;;;5031301;28;20021;-63
2021/07/18 06:50:12;;;;;;;3.60;3.22;;;;;;;;;;5029773;28;20026;-63
2021/07/18 06:52:38;;;;;;;3.53;3.22;;;;;;;;;;5032163;28;20042;-63
2021/07/18 06:55:04;;;;;;;3.83;3.22;;;;;;;;;;5049761;28;20411;-63
2021/07/18 06:57:30;;;;;;;3.75;3.08;;;;;;;;;;5048773;28;20380;-63
2021/07/18 06:59:56;;;;;;;3.60;3.30;;;;;;;;;;5031421;28;20057;-63
2021/07/18 07:02:22;;;;;;;3.80;3.50;;;;;;;;;;5034380;28;20030;-63
2021/07/18 07:04:48;;;;;;;4.10;3.17;;;;;;;;;;5032387;28;20487;-63
2021/07/18 07:07:14;;;;;;;3.72;3.42;;;;;;;;;;5031004;28;20036;-63
2021/07/18 07:09:41;;;;;;;4.97;4.47;;;;;;;;;;5040790;28;20029;-63
2021/07/18 07:12:07;;;;;;;5.45;4.28;;;;;;;;;;5032175;28;20672;-63
2021/07/18 07:14:33;;;;;;;4.40;3.90;;;;;;;;;;5029410;28;20033;-62
2021/07/18 07:16:59;;;;;;;4.68;3.90;;;;;;;;;;5042467;28;20029;-62
2021/07/18 07:19:25;;;;;;;4.15;3.60;;;;;;;;;;5049693;28;20029;-62
2021/07/18 07:21:51;;;;;;;3.88;3.33;;;;;;;;;;5048672;28;20047;-62
2021/07/18 07:24:17;;;;;;;3.60;3.30;;;;;;;;;;5048980;28;20103;-62
2021/07/18 07:26:43;;;;;;;3.90;3.50;;;;;;;;;;5039294;28;20659;-62
2021/07/18 07:29:09;;;;;;;3.40;3.08;;;;;;;;;;5035855;28;20482;-62
2021/07/18 07:31:36;;;;;;;3.35;3.05;;;;;;;;;;5042847;28;20577;-62
2021/07/18 07:34:02;;;;;;;3.47;3.17;;;;;;;;;;5033386;28;21202;-62
2021/07/18 07:36:28;;;;;;;3.40;3.10;;;;;;;;;;5041385;28;20445;-62
2021/07/18 07:38:55;;;;;;;4.20;3.58;;;;;;;;;;5035637;28;20082;-62
2021/07/18 07:41:21;;;;;;;4.22;3.80;;;;;;;;;;5039161;28;20025;-62
2021/07/18 07:43:47;;;;;;;4.20;3.80;;;;;;;;;;5035211;28;20052;-61
2021/07/18 07:46:13;;;;;;;4.63;3.88;;;;;;;;;;5033269;28;20029;-62
2021/07/18 07:48:39;;;;;;;3.67;3.38;;;;;;;;;;5032449;28;20029;-62
2021/07/18 07:51:05;;;;;;;3.38;3.08;;;;;;;;;;5040410;28;20028;-62
2021/07/18 07:53:32;;;;;;;3.38;3.08;;;;;;;;;;5029023;28;20033;-63
2021/07/18 07:55:59;;;;;;;3.53;3.10;;;;;;;;;;5026684;28;20030;-63
2021/07/18 07:58:25;;;;;;;3.20;2.90;;;;;;;;;;5036105;28;20041;-63
2021/07/18 08:00:52;;;;;;;3.42;3.13;;;;;;;;;;5032439;28;20396;-63
2021/07/18 08:03:18;;;;;;;3.50;3.20;;;;;;;;;;5037535;28;20040;-63
2021/07/18 08:05:44;;;;;;;2.70;2.50;;;;;;;;;;5037966;28;20077;-63
2021/07/18 08:08:10;;;;;;;3.90;3.50;;;;;;;;;;5029153;28;20460;-63
2021/07/18 08:10:38;;;;;;;4.47;4.07;;;;;;;;;;5032433;28;20506;-63
2021/07/18 08:13:04;;;;;;;4.05;3.65;;;;;;;;;;5037837;28;20048;-63
2021/07/18 08:15:30;;;;;;;4.40;4.00;;;;;;;;;;5034205;28;20044;-63
2021/07/18 08:17:56;;;;;;;4.13;3.72;;;;;;;;;;5031448;28;20021;-63
2021/07/18 08:20:23;;;;;;;4.20;3.80;;;;;;;;;;5028330;28;20483;-63
2021/07/18 08:22:50;;;;;;;4.25;3.55;;;;;;;;;;5038812;28;20090;-64
2021/07/18 08:25:17;;;;;;;3.50;3.20;;;;;;;;;;5025267;28;20030;-63
2021/07/18 08:27:43;;;;;;;3.42;3.15;;;;;;;;;;5025703;28;20042;-63
2021/07/18 08:30:11;;;;;;;3.47;3.17;;;;;;;;;;5027209;28;20018;-63
2021/07/18 08:32:37;;;;;;;3.55;3.25;;;;;;;;;;5027771;28;20111;-64
2021/07/18 08:35:03;;;;;;;4.63;3.70;;;;;;;;;;5027492;28;20029;-63
2021/07/18 08:37:29;;;;;;;4.80;3.95;;;;;;;;;;5037347;28;20427;-61
2021/07/18 08:39:56;;;;;;;5.00;4.50;;;;;;;;;;5039873;28;20033;-64
2021/07/18 08:42:22;;;;;;;4.70;4.28;;;;;;;;;;5045381;28;20027;-63
2021/07/18 08:44:48;;;;;;;5.63;4.22;;;;;;;;;;5026143;28;20034;-63
2021/07/18 08:47:17;;;;;;;4.60;4.15;;;;;;;;;;5029825;28;20025;-63
2021/07/18 08:49:44;;;;;;;3.75;3.40;;;;;;;;;;5028651;28;20725;-63
2021/07/18 08:52:11;;;;;;;3.65;3.35;;;;;;;;;;5028145;28;20033;-63
2021/07/18 08:54:37;;;;;;;3.40;3.10;;;;;;;;;;5029383;28;20114;-64
2021/07/18 08:57:04;;;;;;;3.70;3.40;;;;;;;;;;5028568;28;20052;-64
2021/07/18 08:59:31;;;;;;;3.30;3.00;;;;;;;;;;5029735;28;20056;-64
2021/07/18 09:01:58;;;;;;;2.85;2.65;;;;;;;;;;5029832;28;20043;-64
2021/07/18 09:04:24;;;;;;;2.70;2.50;;;;;;;;;;5036454;28;20021;-64
2021/07/18 09:06:51;;;;;;;2.63;2.42;;;;;;;;;;5028441;28;20121;-64
2021/07/18 09:09:18;;;;;;;3.85;3.38;;;;;;;;;;5029607;28;20388;-64
2021/07/18 09:11:53;;;;;;;4.38;3.28;;;;;;;;;;5025959;28;20025;-64
2021/07/18 09:14:19;;;;;;;4.32;3.50;;;;;;;;;;5029262;28;20029;-64
2021/07/18 09:16:48;;;;;;;4.53;3.50;;;;;;;;;;5028807;28;20095;-64
2021/07/18 09:19:15;;;;;;;4.38;3.90;;;;;;;;;;5026355;28;20032;-64
2021/07/18 09:21:48;;;;;;;4.00;3.60;;;;;;;;;;5025979;28;20080;-64
2021/07/18 09:24:22;;;;;;;2.92;2.72;;;;;;;;;;5026646;28;20107;-64
2021/07/18 09:27:04;;;;;;;3.40;3.10;;;;;;;;;;5026483;28;20601;-64
2021/07/18 09:29:30;;;;;;;3.70;3.40;;;;;;;;;;5028816;28;20052;-65
2021/07/18 09:32:06;;;;;;;3.10;2.80;;;;;;;;;;5037346;28;20507;-64
2021/07/18 09:34:33;;;;;;;2.60;2.40;;;;;;;;;;5029442;28;20060;-64
2021/07/18 09:37:04;;;;;;;3.08;2.78;;;;;;;;;;5035555;28;20545;-64
2021/07/18 09:39:30;;;;;;;2.60;2.40;;;;;;;;;;5025852;28;20032;-64
2021/07/18 09:41:57;;;;;;;2.50;2.30;;;;;;;;;;5029314;28;20021;-64
2021/07/18 09:44:24;;;;;;;3.13;2.83;;;;;;;;;;5024365;28;20112;-64
2021/07/18 09:46:50;;;;;;;2.72;2.53;;;;;;;;;;5025726;28;20019;-64
2021/07/18 09:49:32;;;;;;;2.40;2.20;;;;;;;;;;5033157;28;20125;-62
2021/07/18 09:52:14;;;;;;;2.50;2.10;;;;;;;;;;5042946;28;20406;-62
2021/07/18 09:54:40;;;;;;;2.55;2.35;;;;;;;;;;5035961;28;20029;-61
2021/07/18 09:57:09;;;;;;;2.95;2.60;;;;;;;;;;5024239;28;20029;-62
2021/07/18 09:59:37;;;;;;;2.50;2.17;;;;;;;;;;5034792;28;20029;-62
2021/07/18 10:02:04;;;;;;;2.92;2.70;;;;;;;;;;5048269;28;20514;-62
2021/07/18 10:04:30;;;;;;;2.40;2.20;;;;;;;;;;5028408;28;20498;-62
2021/07/18 10:07:09;;;;;;;2.78;2.58;;;;;;;;;;5028605;28;20024;-61
2021/07/18 10:09:35;;;;;;;2.10;1.90;;;;;;;;;;5030313;28;20052;-61
2021/07/18 10:12:01;;;;;;;2.72;2.53;;;;;;;;;;5026461;28;20033;-61
2021/07/18 10:14:27;;;;;;;2.90;2.60;;;;;;;;;;5024100;28;20506;-62
2021/07/18 10:16:55;;;;;;;2.72;2.53;;;;;;;;;;5023207;28;20033;-62
2021/07/18 10:19:21;;;;;;;2.92;2.50;;;;;;;;;;5024449;28;20029;-62
2021/07/18 10:21:47;;;;;;;2.40;2.20;;;;;;;;;;5023410;28;20064;-62
2021/07/18 10:24:15;;;;;;;3.10;2.70;;;;;;;;;;5023370;28;20404;-62
2021/07/18 10:26:41;;;;;;;3.53;3.22;;;;;;;;;;5027532;28;20052;-62
2021/07/18 10:29:12;;;;;;;3.28;2.97;;;;;;;;;;5025736;28;20416;-62
2021/07/18 10:31:49;;;;;;;3.88;3.28;;;;;;;;;;5027467;28;20026;-62
2021/07/18 10:34:17;;;;;;;3.95;2.90;;;;;;;;;;5026719;28;20022;-62
2021/07/18 10:36:44;;;;;;;3.10;2.80;;;;;;;;;;5026944;28;20030;-62
2021/07/18 10:39:29;;;;;;;3.03;2.67;;;;;;;;;;5026701;28;20051;-63
2021/07/18 10:41:56;;;;;;;3.10;2.70;;;;;;;;;;5026462;28;20098;-62
2021/07/18 10:44:22;;;;;;;3.70;2.85;;;;;;;;;;5027657;28;20010;-62
2021/07/18 10:46:53;;;;;;;3.67;3.38;;;;;;;;;;5026255;28;20457;-62
2021/07/18 10:49:39;;;;;;;5.20;4.22;;;;;;;;;;5027394;28;20553;-63
2021/07/18 10:52:11;;;;;;;4.18;3.78;;;;;;;;;;5026406;28;20036;-62
2021/07/18 10:54:42;;;;;;;6.35;5.35;;;;;;;;;;5026378;28;20283;-62
2021/07/18 10:57:20;;;;;;;5.60;4.53;;;;;;;;;;5026430;28;20059;-62
2021/07/18 10:59:46;;;;;;;4.88;4.38;;;;;;;;;;5026281;28;20029;-63
2021/07/18 11:02:13;;;;;;;6.10;5.50;;;;;;;;;;5026774;28;20025;-63
2021/07/18 11:04:45;;;;;;;6.15;5.47;;;;;;;;;;5026534;28;20040;-62
2021/07/18 11:07:20;;;;;;;6.20;5.22;;;;;;;;;;5026233;28;20029;-63
2021/07/18 11:09:47;;;;;;;5.47;4.60;;;;;;;;;;5026136;28;20030;-62
2021/07/18 11:12:31;;;;;;;5.20;4.70;;;;;;;;;;5026657;28;20497;-62
2021/07/18 11:15:15;;;;;;;5.20;4.70;;;;;;;;;;5025998;28;20034;-62
2021/07/18 11:18:00;;;;;;;4.55;4.15;;;;;;;;;;5026302;28;20029;-62
2021/07/18 11:20:38;;;;;;;4.18;3.80;;;;;;;;;;5026105;28;20025;-62
2021/07/18 11:23:05;;;;;;;3.70;3.35;;;;;;;;;;5025924;28;20055;-62
2021/07/18 11:25:50;;;;;;;6.10;5.25;;;;;;;;;;5026434;28;20032;-62
2021/07/18 11:28:32;;;;;;;7.47;5.13;;;;;;;;;;5025887;28;20510;-61
2021/07/18 11:31:11;;;;;;;4.93;4.40;;;;;;;;;;5025927;28;20512;-63
2021/07/18 11:33:37;;;;;;;5.35;4.70;;;;;;;;;;5025855;28;20030;-62
2021/07/18 11:36:03;;;;;;;8.15;5.47;;;;;;;;;;5025436;28;20037;-63
2021/07/18 11:38:29;;;;;;;6.07;4.70;;;;;;;;;;5034124;28;20056;-63
2021/07/18 11:40:55;;;;;;;4.38;3.97;;;;;;;;;;5045864;28;20503;-62
2021/07/18 11:43:23;;;;;;;7.00;4.82;;;;;;;;;;5044062;28;20025;-62
2021/07/18 11:45:49;;;;;;;4.85;4.35;;;;;;;;;;5044792;28;20021;-63
2021/07/18 11:48:17;;;;;;;4.35;3.67;;;;;;;;;;5045432;28;20029;-63
2021/07/18 11:50:43;;;;;;;3.75;3.45;;;;;;;;;;5045463;28;20522;-63
2021/07/18 11:53:09;;;;;;;3.30;3.00;;;;;;;;;;5045185;28;20040;-63
2021/07/18 11:55:36;;;;;;;4.18;3.42;;;;;;;;;;5046067;28;20037;-63
2021/07/18 11:58:06;;;;;;;3.38;3.08;;;;;;;;;;5045431;28;20032;-63
2021/07/18 12:00:33;;;;;;;3.78;3.47;;;;;;;;;;5045873;28;20048;-63
2021/07/18 12:03:01;;;;;;;3.70;3.03;;;;;;;;;;5044888;28;20029;-63
2021/07/18 12:05:27;;;;;;;3.30;3.00;;;;;;;;;;5045275;28;20095;-64
2021/07/18 12:08:04;;;;;;;3.10;2.80;;;;;;;;;;5044855;28;20035;-63
2021/07/18 12:10:30;;;;;;;3.22;2.75;;;;;;;;;;5045194;28;20021;-63
2021/07/18 12:12:56;;;;;;;3.13;2.85;;;;;;;;;;5044955;28;20071;-63
2021/07/18 12:15:22;;;;;;;2.83;2.55;;;;;;;;;;5045071;28;20017;-63
2021/07/18 12:18:00;;;;;;;2.65;2.45;;;;;;;;;;5044673;28;20593;-63
2021/07/18 12:20:26;;;;;;;2.88;2.53;;;;;;;;;;5045122;28;20440;-63
2021/07/18 12:22:52;;;;;;;2.45;2.25;;;;;;;;;;5044319;28;20064;-63
2021/07/18 12:25:18;;;;;;;2.60;2.40;;;;;;;;;;5044698;28;20025;-64
2021/07/18 12:27:45;;;;;;;3.10;2.85;;;;;;;;;;5044798;28;20032;-63
2021/07/18 12:30:11;;;;;;;3.00;2.70;;;;;;;;;;5044777;28;20017;-63
2021/07/18 12:32:37;;;;;;;4.60;3.47;;;;;;;;;;5044870;28;20035;-62
2021/07/18 12:35:03;;;;;;;4.57;3.97;;;;;;;;;;5045035;28;20469;-63
2021/07/18 12:37:31;;;;;;;4.43;4.03;;;;;;;;;;5044399;28;20403;-63
2021/07/18 12:40:01;;;;;;;3.50;3.20;;;;;;;;;;5044326;28;20178;-63
2021/07/18 12:42:32;;;;;;;4.72;3.53;;;;;;;;;;5044456;28;20033;-63
2021/07/18 12:45:02;;;;;;;3.53;3.22;;;;;;;;;;5043639;28;20029;-63
2021/07/18 12:47:32;;;;;;;3.30;3.00;;;;;;;;;;5043930;28;20329;-63
2021/07/18 12:50:05;;;;;;;2.63;2.42;;;;;;;;;;5044275;28;20029;-63
2021/07/18 12:52:31;;;;;;;2.67;2.47;;;;;;;;;;5042648;28;20423;-63
2021/07/18 12:54:57;;;;;;;3.35;2.67;;;;;;;;;;5043986;28;20033;-63
2021/07/18 12:57:29;;;;;;;2.72;2.50;;;;;;;;;;5044078;28;20518;-63
2021/07/18 13:00:05;;;;;;;2.92;2.42;;;;;;;;;;5044052;28;20307;-62
2021/07/18 13:02:31;;;;;;;2.40;2.20;;;;;;;;;;5043079;28;20047;-63
2021/07/18 13:05:04;;;;;;;2.35;2.15;;;;;;;;;;5044007;28;20032;-63
2021/07/18 13:07:30;;;;;;;3.20;2.90;;;;;;;;;;5043916;28;20450;-63
2021/07/18 13:10:13;;;;;;;3.00;2.80;;;;;;;;;;5043827;28;20025;-63
2021/07/18 13:12:40;;;;;;;3.20;2.90;;;;;;;;;;5044365;28;20032;-63
2021/07/18 13:15:19;;;;;;;2.65;2.45;;;;;;;;;;5044457;28;20450;-63
2021/07/18 13:17:49;;;;;;;4.32;2.63;;;;;;;;;;5043690;28;20075;-63
2021/07/18 13:20:16;;;;;;;2.83;2.60;;;;;;;;;;5044125;28;20029;-62
2021/07/18 13:22:45;;;;;;;2.58;2.38;;;;;;;;;;5043907;28;20075;-63
2021/07/18 13:25:17;;;;;;;3.88;3.28;;;;;;;;;;5043830;28;20024;-62
2021/07/18 13:27:44;;;;;;;3.38;3.08;;;;;;;;;;5044022;28;20640;-63
2021/07/18 13:30:11;;;;;;;2.92;2.72;;;;;;;;;;5043890;28;20369;-63
2021/07/18 13:32:38;;;;;;;3.67;2.95;;;;;;;;;;5043773;28;20025;-62
2021/07/18 13:35:10;;;;;;;3.55;2.75;;;;;;;;;;5044157;28;20534;-63
2021/07/18 13:37:49;;;;;;;3.75;2.53;;;;;;;;;;5044007;28;20127;-63
2021/07/18 13:40:22;;;;;;;4.40;2.50;;;;;;;;;;5026905;28;20075;-62
2021/07/18 13:42:49;;;;;;;2.42;2.10;;;;;;;;;;5030892;28;20025;-61
2021/07/18 13:45:15;;;;;;;2.45;2.25;;;;;;;;;;5034662;28;20036;-62
2021/07/18 13:47:41;;;;;;;3.05;2.75;;;;;;;;;;5035629;28;20021;-62
2021/07/18 13:50:07;;;;;;;2.97;2.20;;;;;;;;;;5029221;28;20021;-62
2021/07/18 13:52:34;;;;;;;2.22;2.03;;;;;;;;;;5026109;28;20956;-61
2021/07/18 13:55:00;;;;;;;2.75;2.55;;;;;;;;;;5038149;28;20560;-62
2021/07/18 13:57:26;;;;;;;2.22;1.63;;;;;;;;;;5038854;28;20502;-62
2021/07/18 13:59:52;;;;;;;2.42;1.98;;;;;;;;;;5030223;28;20036;-63
2021/07/18 14:02:19;;;;;;;2.17;1.98;;;;;;;;;;5038830;28;20024;-61
2021/07/18 14:04:45;;;;;;;2.42;2.10;;;;;;;;;;5036207;28;20408;-62
2021/07/18 14:07:11;;;;;;;1.77;1.67;;;;;;;;;;5033367;28;20033;-62
2021/07/18 14:09:37;;;;;;;2.38;1.90;;;;;;;;;;5038605;28;20056;-62
2021/07/18 14:12:03;;;;;;;3.42;1.95;;;;;;;;;;5034943;28;20021;-63
2021/07/18 14:14:29;;;;;;;1.70;1.60;;;;;;;;;;5035169;28;20037;-62
2021/07/18 14:16:55;;;;;;;2.10;1.92;;;;;;;;;;5033158;28;20522;-61
2021/07/18 14:19:21;;;;;;;2.35;2.15;;;;;;;;;;5031612;28;20503;-62
2021/07/18 14:21:47;;;;;;;3.03;2.60;;;;;;;;;;5030921;28;20033;-63
2021/07/18 14:24:13;;;;;;;4.43;2.50;;;;;;;;;;5027726;28;20459;-62
2021/07/18 14:26:39;;;;;;;3.03;2.50;;;;;;;;;;5042517;28;20048;-61
2021/07/18 14:29:06;;;;;;;5.45;2.60;;;;;;;;;;5039864;28;20037;-61
2021/07/18 14:31:32;;;;;;;3.08;2.05;;;;;;;;;;5046120;28;20032;-62
2021/07/18 14:33:58;;;;;;;2.67;2.28;;;;;;;;;;5033753;28;20055;-62
2021/07/18 14:36:24;;;;;;;2.13;1.80;;;;;;;;;;5031513;28;20483;-61
2021/07/18 14:38:51;;;;;;;2.25;2.05;;;;;;;;;;5033523;28;20029;-62
2021/07/18 14:41:18;;;;;;;3.80;2.50;;;;;;;;;;5047713;28;20112;-61
2021/07/18 14:43:44;;;;;;;3.20;2.00;;;;;;;;;;5036521;28;20048;-62